Time;durP1;ratioP1;P1;durP2;ratioP2;P2;SDS_P1;SDS_P2;PMS_P1;PMS_P2;Temp;Humidity;BMP_temperature;BMP_pressure;BME280_temperature;BME280_humidity;BME280_pressure;Samples;Min_cycle;Max_cycle;Signal;HPM_P1;HPM_P2
2021/10/26 00:02:19;;;;;;;92.05;46.10;;;;;;;-0.77;68.20;102723.05;1758190;81;21402;-73
2021/10/26 00:04:45;;;;;;;96.30;45.95;;;;;;;-0.77;68.17;102714.90;1757734;81;20948;-74
2021/10/26 00:07:13;;;;;;;88.90;45.17;;;;;;;-0.79;68.29;102717.86;1758184;81;21405;-74
2021/10/26 00:09:40;;;;;;;95.05;44.75;;;;;;;-0.79;68.27;102716.56;1757891;81;21132;-74
2021/10/26 00:12:09;;;;;;;79.97;41.02;;;;;;;-0.81;68.33;102720.81;1758248;81;21579;-74
2021/10/26 00:14:37;;;;;;;91.40;41.73;;;;;;;-0.80;68.36;102722.97;1757811;81;20932;-72
2021/10/26 00:17:04;;;;;;;94.28;49.18;;;;;;;-0.83;68.52;102716.05;1757765;81;21421;-73
2021/10/26 00:19:32;;;;;;;94.50;48.00;;;;;;;-0.86;68.50;102716.00;1757708;81;21050;-73
2021/10/26 00:21:59;;;;;;;113.90;54.25;;;;;;;-0.90;68.65;102721.91;1757844;81;21210;-73
2021/10/26 00:24:27;;;;;;;109.10;54.33;;;;;;;-0.93;68.91;102714.14;1758142;81;20936;-75
2021/10/26 00:26:53;;;;;;;117.08;56.48;;;;;;;-0.91;69.23;102712.04;1758131;81;20880;-74
2021/10/26 00:29:22;;;;;;;121.42;56.40;;;;;;;-0.88;69.31;102706.08;1757813;81;20924;-73
2021/10/26 00:31:49;;;;;;;117.37;51.00;;;;;;;-0.86;69.15;102705.70;1758164;80;20837;-74
2021/10/26 00:34:16;;;;;;;118.13;55.33;;;;;;;-0.87;69.12;102705.23;1758383;81;21478;-73
2021/10/26 00:36:43;;;;;;;116.77;60.08;;;;;;;-0.87;69.17;102707.80;1757725;80;21410;-72
2021/10/26 00:39:10;;;;;;;124.18;57.43;;;;;;;-0.85;69.01;102706.99;1758075;80;20920;-75
2021/10/26 00:41:37;;;;;;;112.85;54.75;;;;;;;-0.88;68.98;102706.94;1757871;81;20964;-74
2021/10/26 00:44:04;;;;;;;108.00;52.08;;;;;;;-0.89;68.81;102708.19;1757827;81;21519;-73
2021/10/26 00:46:34;;;;;;;106.03;50.75;;;;;;;-0.94;68.71;102713.24;1758129;81;21113;-73
2021/10/26 00:49:03;;;;;;;97.40;45.48;;;;;;;-0.96;68.98;102702.46;1758206;81;21342;-74
2021/10/26 00:51:31;;;;;;;99.80;48.95;;;;;;;-0.95;69.15;102702.93;1750213;81;20904;-73
2021/10/26 00:53:59;;;;;;;96.85;49.35;;;;;;;-0.95;69.25;102702.93;1744323;80;20916;-74
2021/10/26 00:56:26;;;;;;;83.80;45.55;;;;;;;-0.94;69.25;102704.66;1744501;82;21044;-73
2021/10/26 00:58:53;;;;;;;94.35;45.12;;;;;;;-0.96;69.34;102702.03;1744495;80;21160;-74
2021/10/26 01:01:20;;;;;;;88.22;44.63;;;;;;;-0.95;69.30;102708.94;1744466;82;20838;-75
2021/10/26 01:03:47;;;;;;;96.95;48.33;;;;;;;-0.96;69.28;102709.77;1744455;80;20932;-73
2021/10/26 01:06:14;;;;;;;97.55;45.73;;;;;;;-0.96;69.12;102707.19;1744296;82;21546;-73
2021/10/26 01:08:41;;;;;;;94.13;45.63;;;;;;;-0.96;68.91;102714.05;1744845;82;20913;-74
2021/10/26 01:11:08;;;;;;;81.70;42.95;;;;;;;-1.01;68.80;102713.95;1744499;82;21024;-74
2021/10/26 01:13:35;;;;;;;100.55;47.78;;;;;;;-1.01;68.67;102713.95;1744586;82;21482;-75
2021/10/26 01:16:03;;;;;;;81.15;43.60;;;;;;;-1.03;68.76;102715.63;1744546;81;20865;-75
2021/10/26 01:18:31;;;;;;;87.17;44.18;;;;;;;-1.03;68.75;102715.63;1744833;81;21442;-74
2021/10/26 01:20:58;;;;;;;88.52;43.10;;;;;;;-1.08;68.72;102714.23;1744469;82;20881;-75
2021/10/26 01:23:26;;;;;;;84.17;42.23;;;;;;;-1.09;68.92;102713.80;1744532;81;21544;-74
2021/10/26 01:25:52;;;;;;;94.62;44.67;;;;;;;-1.10;69.05;102715.05;1744339;82;20889;-73
2021/10/26 01:28:20;;;;;;;90.10;43.92;;;;;;;-1.14;69.07;102713.23;1744479;82;20857;-73
2021/10/26 01:30:46;;;;;;;93.92;45.88;;;;;;;-1.16;69.23;102718.77;1744644;82;20976;-74
2021/10/26 01:33:15;;;;;;;95.83;48.40;;;;;;;-1.17;69.42;102718.33;1716899;80;20950;-73
2021/10/26 01:35:44;;;;;;;92.65;43.15;;;;;;;-1.17;69.29;102717.90;1744038;81;21182;-73
2021/10/26 01:38:11;;;;;;;107.95;47.43;;;;;;;-1.17;69.17;102714.47;1744686;81;20921;-73
2021/10/26 01:40:38;;;;;;;104.65;50.60;;;;;;;-1.20;69.23;102719.13;1745122;80;20956;-73
2021/10/26 01:43:06;;;;;;;103.70;53.38;;;;;;;-1.21;69.15;102712.23;1744775;82;20901;-73
2021/10/26 01:45:33;;;;;;;109.22;49.67;;;;;;;-1.24;69.21;102712.17;1744578;81;21374;-74
2021/10/26 01:48:02;;;;;;;88.30;45.30;;;;;;;-1.23;69.13;102713.89;1744032;81;22172;-76
2021/10/26 01:50:29;;;;;;;97.45;48.63;;;;;;;-1.23;69.11;102720.33;1745031;81;20845;-75
2021/10/26 01:52:57;;;;;;;96.37;48.85;;;;;;;-1.23;68.85;102715.18;1757931;81;20943;-74
2021/10/26 01:55:24;;;;;;;105.37;50.28;;;;;;;-1.26;68.71;102718.98;1757860;81;21015;-74
2021/10/26 01:57:52;;;;;;;93.10;46.13;;;;;;;-1.31;68.84;102716.73;1757928;81;20856;-74
2021/10/26 02:00:26;;;;;;;94.32;47.40;;;;;;;-1.30;69.06;102716.75;1757433;81;21180;-75
2021/10/26 02:02:53;;;;;;;84.85;42.83;;;;;;;-1.28;69.00;102721.52;1757979;81;20880;-75
2021/10/26 02:05:20;;;;;;;91.57;45.78;;;;;;;-1.26;68.84;102719.84;1741139;81;20896;-74
2021/10/26 02:07:46;;;;;;;86.50;42.03;;;;;;;-1.29;68.80;102723.65;1757726;81;21405;-74
2021/10/26 02:10:15;;;;;;;89.92;41.00;;;;;;;-1.30;68.82;102716.75;1758223;81;20923;-74
2021/10/26 02:12:44;;;;;;;84.70;40.20;;;;;;;-1.34;68.88;102708.50;1757885;81;21053;-74
2021/10/26 02:15:13;;;;;;;75.75;38.60;;;;;;;-1.34;68.97;102720.08;1757857;80;20869;-75
2021/10/26 02:17:41;;;;;;;77.10;36.73;;;;;;;-1.34;69.09;102724.36;1757871;81;21007;-76
2021/10/26 02:20:11;;;;;;;75.52;39.98;;;;;;;-1.37;69.15;102720.02;1758217;81;20924;-76
2021/10/26 02:22:38;;;;;;;89.77;44.05;;;;;;;-1.37;69.21;102708.86;1740714;81;20959;-75
2021/10/26 02:25:06;;;;;;;101.07;52.17;;;;;;;-1.41;69.05;102720.77;1757761;81;21142;-75
2021/10/26 02:27:34;;;;;;;105.80;56.88;;;;;;;-1.42;68.92;102717.77;1757776;81;20935;-78
2021/10/26 02:30:01;;;;;;;105.55;56.20;;;;;;;-1.44;68.92;102718.14;1758204;80;20884;-73
2021/10/26 02:32:28;;;;;;;99.70;52.70;;;;;;;-1.45;69.01;102720.24;1758166;80;20944;-74
2021/10/26 02:34:55;;;;;;;105.30;54.23;;;;;;;-1.47;69.11;102718.05;1758314;81;21468;-74
2021/10/26 02:37:21;;;;;;;102.78;54.50;;;;;;;-1.48;69.14;102714.61;1758261;81;21124;-74
2021/10/26 02:39:49;;;;;;;97.78;54.77;;;;;;;-1.49;69.32;102718.03;1757688;81;20888;-73
2021/10/26 02:42:16;;;;;;;91.25;46.68;;;;;;;-1.51;69.28;102717.13;1758102;80;20896;-73
2021/10/26 02:44:45;;;;;;;90.17;50.25;;;;;;;-1.50;69.46;102718.85;1757770;81;21460;-73
2021/10/26 02:47:12;;;;;;;84.10;45.43;;;;;;;-1.49;69.59;102720.61;1757892;80;21101;-73
2021/10/26 02:49:39;;;;;;;88.00;43.10;;;;;;;-1.46;69.45;102724.53;1758203;81;21067;-74
2021/10/26 02:52:06;;;;;;;80.32;44.77;;;;;;;-1.47;69.48;102726.66;1757709;81;20889;-73
2021/10/26 02:54:32;;;;;;;66.87;37.15;;;;;;;-1.48;69.49;102727.91;1757953;80;20956;-72
2021/10/26 02:57:01;;;;;;;76.85;38.10;;;;;;;-1.48;69.44;102727.91;1758091;81;20873;-74
2021/10/26 02:59:28;;;;;;;68.12;33.45;;;;;;;-1.51;69.51;102720.12;1758247;81;20960;-74
2021/10/26 03:01:56;;;;;;;70.35;35.70;;;;;;;-1.51;69.47;102721.41;1758095;81;21144;-72
2021/10/26 03:04:23;;;;;;;64.60;33.85;;;;;;;-1.53;69.40;102715.36;1757923;81;20844;-73
2021/10/26 03:06:50;;;;;;;60.67;29.92;;;;;;;-1.53;69.30;102714.06;1758146;81;21381;-73
2021/10/26 03:09:17;;;;;;;64.72;30.27;;;;;;;-1.53;69.30;102716.22;1757822;81;20939;-73
2021/10/26 03:11:44;;;;;;;56.50;31.02;;;;;;;-1.54;69.32;102708.45;1758176;81;21019;-75
2021/10/26 03:14:11;;;;;;;72.17;32.98;;;;;;;-1.54;69.23;102708.03;1758220;81;21476;-75
2021/10/26 03:16:38;;;;;;;71.00;34.95;;;;;;;-1.55;69.17;102703.73;1758047;81;20845;-76
2021/10/26 03:19:05;;;;;;;55.15;29.95;;;;;;;-1.54;69.09;102709.31;1757964;81;20971;-74
2021/10/26 03:21:35;;;;;;;65.05;32.23;;;;;;;-1.54;68.93;102704.17;1757857;81;20940;-74
2021/10/26 03:24:04;;;;;;;54.60;29.02;;;;;;;-1.56;68.84;102699.41;1757792;80;21322;-74
2021/10/26 03:26:32;;;;;;;60.92;33.18;;;;;;;-1.55;68.76;102699.02;1757912;80;20888;-73
2021/10/26 03:28:59;;;;;;;58.35;30.65;;;;;;;-1.56;68.65;102699.41;1758086;81;21433;-75
2021/10/26 03:31:27;;;;;;;54.98;32.53;;;;;;;-1.55;68.59;102701.58;1740951;81;20939;-75
2021/10/26 03:34:14;;;;;;;66.57;32.73;;;;;;;-1.57;68.61;102698.10;1755991;80;20968;-75
2021/10/26 03:36:41;;;;;;;68.42;36.23;;;;;;;-1.58;68.50;102700.20;1757857;80;20881;-75
2021/10/26 03:39:07;;;;;;;61.28;34.80;;;;;;;-1.62;68.58;102697.09;1741076;80;21804;-75
2021/10/26 03:41:34;;;;;;;66.92;34.08;;;;;;;-1.65;68.64;102704.75;1757782;81;20908;-75
2021/10/26 03:44:02;;;;;;;69.87;36.38;;;;;;;-1.67;68.42;102704.70;1758306;81;20892;-74
2021/10/26 03:46:29;;;;;;;72.12;37.75;;;;;;;-1.72;68.50;102698.59;1758072;81;20861;-75
2021/10/26 03:48:57;;;;;;;83.47;39.73;;;;;;;-1.74;68.51;102702.83;1758039;81;20928;-75
2021/10/26 03:51:24;;;;;;;65.72;33.48;;;;;;;-1.79;68.72;102704.42;1757805;81;21131;-75
2021/10/26 03:53:50;;;;;;;65.55;33.25;;;;;;;-1.81;69.12;102695.80;1757835;81;20923;-75
2021/10/26 03:56:19;;;;;;;56.80;30.75;;;;;;;-1.78;69.14;102698.44;1757933;81;20857;-75
2021/10/26 03:58:46;;;;;;;73.12;35.70;;;;;;;-1.78;69.00;102694.19;1757689;81;20968;-74
2021/10/26 04:01:20;;;;;;;225.93;98.20;;;;;;;-1.77;68.90;102692.05;1758579;81;20848;-74
2021/10/26 04:03:47;;;;;;;318.67;129.20;;;;;;;-1.77;69.09;102696.34;1758289;80;21144;-75
2021/10/26 04:06:17;;;;;;;188.52;80.50;;;;;;;-1.76;69.21;102697.64;1757957;80;21580;-75
2021/10/26 04:11:17;;;;;;;117.08;56.23;;;;;;;-1.80;69.08;102684.28;1757826;80;20936;-75
2021/10/26 04:13:44;;;;;;;178.15;84.45;;;;;;;-1.84;69.18;102687.60;1757905;81;20939;-75
2021/10/26 04:16:12;;;;;;;200.78;86.75;;;;;;;-1.85;69.46;102691.41;1757939;81;21377;-74
2021/10/26 04:18:39;;;;;;;191.22;82.57;;;;;;;-1.82;69.55;102689.80;1757714;81;20908;-75
2021/10/26 04:21:07;;;;;;;109.22;53.63;;;;;;;-1.81;69.49;102693.23;1758037;81;20896;-76
2021/10/26 04:23:42;;;;;;;;;;;;;;;-1.78;69.51;102695.48;1760794;81;20865;-78
2021/10/26 04:26:09;;;;;;;150.05;62.62;;;;;;;-1.78;69.40;102693.30;1758181;81;20143;-79
2021/10/26 04:28:36;;;;;;;156.63;64.60;;;;;;;-1.79;69.45;102693.72;1758385;81;21503;-77
2021/10/26 04:31:05;;;;;;;128.95;57.55;;;;;;;-1.80;69.44;102695.85;1758633;81;21573;-76
2021/10/26 04:33:33;;;;;;;89.83;42.83;;;;;;;-1.85;69.75;102695.27;1758072;81;20908;-80
2021/10/26 04:36:00;;;;;;;86.17;41.42;;;;;;;-1.81;69.90;102693.23;1758745;81;20904;-79
2021/10/26 04:38:27;;;;;;;87.12;40.45;;;;;;;-1.80;69.96;102694.56;1758252;81;20904;-78
2021/10/26 04:40:57;;;;;;;108.22;49.50;;;;;;;-1.75;70.00;102701.10;1758158;81;21163;-78
2021/10/26 04:43:26;;;;;;;96.35;47.35;;;;;;;-1.72;70.05;102698.59;1757743;81;20904;-80
2021/10/26 04:45:53;;;;;;;80.50;40.52;;;;;;;-1.71;69.93;102693.50;1757691;80;21117;-79
2021/10/26 04:48:22;;;;;;;86.05;44.88;;;;;;;-1.69;69.77;102693.52;1757875;81;21468;-78
2021/10/26 04:50:49;;;;;;;104.27;48.90;;;;;;;-1.68;69.68;102692.27;1757801;80;20889;-78
2021/10/26 04:53:17;;;;;;;105.90;48.02;;;;;;;-1.68;69.53;102692.70;1757804;81;21083;-79
2021/10/26 04:55:47;;;;;;;112.80;47.78;;;;;;;-1.70;69.84;102692.65;1757160;81;20908;-79
2021/10/26 04:58:15;;;;;;;112.42;48.25;;;;;;;-1.63;69.85;102692.80;1757804;81;21573;-79
2021/10/26 05:00:43;;;;;;;107.27;47.03;;;;;;;-1.61;69.82;102688.57;1758124;80;20987;-79
2021/10/26 05:03:11;;;;;;;103.45;48.13;;;;;;;-1.56;69.56;102698.54;1758133;80;21541;-82
2021/10/26 05:05:39;;;;;;;111.15;50.40;;;;;;;-1.58;69.67;102695.95;1759138;81;21141;-81
2021/10/26 05:08:06;;;;;;;112.37;51.92;;;;;;;-1.55;69.74;102700.30;1758355;81;20912;-81
2021/10/26 05:10:33;;;;;;;112.55;49.93;;;;;;;-1.53;69.88;102698.63;1758367;81;20892;-77
2021/10/26 05:13:02;;;;;;;113.95;50.38;;;;;;;-1.49;69.81;102701.31;1758272;80;21350;-80
2021/10/26 05:15:48;;;;;;;91.82;43.35;;;;;;;-1.44;69.77;102701.42;1758083;81;20927;-79
2021/10/26 05:18:20;;;;;;;95.28;47.58;;;;;;;-1.39;69.91;102694.66;1755647;81;21201;-77
2021/10/26 05:21:06;;;;;;;117.33;50.33;;;;;;;-1.27;69.99;102702.68;1755859;80;21023;-76
2021/10/26 05:23:45;;;;;;;120.00;48.90;;;;;;;-1.11;70.01;102708.14;1732548;81;20849;-78
2021/10/26 05:26:18;;;;;;;86.65;41.80;;;;;;;-1.00;69.70;102700.66;1757589;80;20928;-78
2021/10/26 05:28:47;;;;;;;93.75;43.08;;;;;;;-0.89;69.55;102702.64;1758050;81;20979;-77
2021/10/26 05:31:13;;;;;;;102.97;47.38;;;;;;;-0.75;69.72;102704.63;1758269;81;21875;-77
2021/10/26 05:33:41;;;;;;;103.15;45.35;;;;;;;-0.59;69.63;102704.52;1758064;81;20916;-78
2021/10/26 05:36:08;;;;;;;89.80;43.10;;;;;;;-0.45;69.50;102708.22;1740751;81;20924;-78
2021/10/26 05:38:36;;;;;;;102.22;48.10;;;;;;;-0.19;69.49;102716.45;1755611;81;20900;-77
2021/10/26 05:41:05;;;;;;;102.45;44.73;;;;;;;0.11;69.17;102715.25;1758470;81;20845;-77
2021/10/26 05:43:34;;;;;;;90.17;43.20;;;;;;;0.38;68.58;102715.73;1757956;80;21828;-77
2021/10/26 05:46:03;;;;;;;78.28;38.88;;;;;;;0.74;68.15;102709.81;1757939;81;20884;-76
2021/10/26 05:48:32;;;;;;;76.45;40.05;;;;;;;1.38;68.06;102718.81;1758126;80;20888;-75
2021/10/26 05:51:01;;;;;;;82.25;38.75;;;;;;;2.25;67.03;102718.88;1758043;81;20999;-78
2021/10/26 05:53:28;;;;;;;79.45;41.77;;;;;;;3.18;65.18;102719.03;1748390;81;20909;-76
2021/10/26 05:55:59;;;;;;;74.77;38.20;;;;;;;4.10;62.74;102724.48;1744917;82;21160;-77
2021/10/26 05:58:25;;;;;;;70.00;36.28;;;;;;;4.96;60.41;102724.42;1746024;82;20945;-77
2021/10/26 06:00:52;;;;;;;67.35;36.88;;;;;;;5.80;58.02;102722.75;1745037;82;21367;-76
2021/10/26 06:03:19;;;;;;;69.12;35.83;;;;;;;6.60;56.04;102714.76;1744721;81;21458;-76
2021/10/26 06:05:46;;;;;;;54.20;34.92;;;;;;;7.36;53.93;102714.36;1744986;82;21382;-76
2021/10/26 06:08:13;;;;;;;62.67;35.48;;;;;;;8.07;51.52;102715.52;1744498;82;21102;-77
2021/10/26 06:10:43;;;;;;;57.33;33.40;;;;;;;8.73;49.74;102717.47;1744967;82;21323;-76
2021/10/26 06:13:11;;;;;;;54.25;36.33;;;;;;;9.03;48.16;102713.88;1744682;81;20897;-76
2021/10/26 06:15:41;;;;;;;55.80;36.35;;;;;;;8.93;47.25;102714.48;1744837;82;20944;-76
2021/10/26 06:18:08;;;;;;;56.10;36.05;;;;;;;8.67;47.03;102711.92;1744653;82;21083;-76
2021/10/26 06:20:37;;;;;;;58.85;34.60;;;;;;;8.37;47.09;102712.42;1744565;81;21122;-77
2021/10/26 06:23:04;;;;;;;53.38;33.98;;;;;;;8.06;47.42;102719.00;1744704;82;21403;-76
2021/10/26 06:25:32;;;;;;;57.90;34.13;;;;;;;7.79;47.87;102724.20;1744568;80;20928;-77
2021/10/26 06:28:18;;;;;;;58.65;30.82;;;;;;;7.52;48.23;102718.08;1744707;82;21468;-75
2021/10/26 06:30:47;;;;;;;55.03;30.57;;;;;;;7.24;48.83;102716.66;1744536;81;20968;-76
2021/10/26 06:33:15;;;;;;;42.85;25.62;;;;;;;7.03;49.39;102717.80;1744683;81;22209;-75
2021/10/26 06:35:45;;;;;;;43.42;23.98;;;;;;;6.84;49.58;102716.26;1744758;81;21000;-75
2021/10/26 06:38:13;;;;;;;39.92;23.15;;;;;;;6.63;49.74;102715.61;1744645;82;21043;-76
2021/10/26 06:40:41;;;;;;;42.03;22.73;;;;;;;6.45;50.11;102722.30;1744649;82;20861;-77
2021/10/26 06:43:28;;;;;;;48.70;22.00;;;;;;;6.29;50.42;102725.89;1686802;81;21003;-77
2021/10/26 06:46:03;;;;;;;45.98;23.55;;;;;;;6.12;50.68;102719.53;1723642;80;21344;-77
2021/10/26 06:48:49;;;;;;;39.80;21.70;;;;;;;5.99;50.96;102722.21;1745284;82;20975;-76
2021/10/26 06:51:34;;;;;;;39.50;20.60;;;;;;;5.88;51.31;102721.39;1745060;80;21362;-78
2021/10/26 06:54:23;;;;;;;36.33;20.10;;;;;;;5.81;51.46;102723.16;1757630;80;20960;-77
2021/10/26 06:57:08;;;;;;;36.38;18.00;;;;;;;5.75;51.78;102711.48;1758248;81;20849;-76
2021/10/26 06:59:53;;;;;;;;;;;;;;;5.72;51.97;102713.26;1760474;81;21155;-78
2021/10/26 07:02:53;;;;;;;25.15;16.62;;;;;;;5.68;52.17;102722.81;1758490;81;20101;-77
2021/10/26 07:05:41;;;;;;;32.25;17.82;;;;;;;5.64;52.38;102715.03;1758356;81;20942;-79
2021/10/26 07:08:19;;;;;;;27.27;14.55;;;;;;;5.60;52.77;102713.76;1708665;81;20873;-78
2021/10/26 07:10:46;;;;;;;22.77;13.15;;;;;;;5.58;52.93;102714.61;1757950;81;20983;-77
2021/10/26 07:13:15;;;;;;;20.27;13.25;;;;;;;5.59;53.05;102712.02;1757862;80;21157;-79
2021/10/26 07:15:42;;;;;;;21.12;12.98;;;;;;;5.60;53.18;102710.27;1757834;81;21429;-78
2021/10/26 07:18:09;;;;;;;16.87;11.38;;;;;;;5.61;53.29;102703.76;1758551;81;20872;-77
2021/10/26 07:20:36;;;;;;;24.95;12.33;;;;;;;5.64;53.23;102705.92;1758666;80;20932;-76
2021/10/26 07:23:05;;;;;;;20.25;12.55;;;;;;;5.66;53.22;102718.05;1712371;81;20877;-76
2021/10/26 07:25:49;;;;;;;21.05;12.70;;;;;;;5.68;53.10;102713.70;1701880;81;20988;-76
2021/10/26 07:28:16;;;;;;;17.00;12.15;;;;;;;5.71;52.75;102712.37;1758161;80;20940;-78
2021/10/26 07:30:46;;;;;;;18.35;10.50;;;;;;;5.74;52.67;102706.30;1758135;81;20853;-77
2021/10/26 07:33:22;;;;;;;19.95;11.08;;;;;;;5.77;52.65;102705.83;1758201;81;20936;-79
2021/10/26 07:35:52;;;;;;;17.90;10.20;;;;;;;5.82;52.57;102704.50;1758034;80;20936;-78
2021/10/26 07:38:33;;;;;;;18.02;10.55;;;;;;;5.87;52.39;102704.05;1758272;80;21131;-78
2021/10/26 07:40:59;;;;;;;13.70;9.55;;;;;;;5.91;52.06;102703.57;1758789;81;20932;-78
2021/10/26 07:43:40;;;;;;;20.85;10.45;;;;;;;5.97;51.86;102699.66;1700396;81;20923;-78
2021/10/26 07:46:25;;;;;;;;;;;;;;;6.04;51.87;102696.58;1760419;81;21011;-81
2021/10/26 07:48:52;;;;;;;15.78;11.12;;;;;;;6.11;51.49;102702.16;1758020;81;20402;-78
2021/10/26 07:51:19;;;;;;;17.17;10.28;;;;;;;6.17;51.53;102699.52;1757878;81;21150;-79
2021/10/26 07:53:48;;;;;;;14.07;9.75;;;;;;;6.25;51.38;102698.13;1749812;81;21009;-77
2021/10/26 07:56:18;;;;;;;21.70;10.82;;;;;;;6.31;51.05;102701.55;1744472;81;20928;-79
2021/10/26 07:58:45;;;;;;;17.92;10.38;;;;;;;6.38;50.98;102699.75;1744679;82;21027;-78
2021/10/26 08:01:13;;;;;;;18.42;11.15;;;;;;;6.44;50.55;102702.31;1744463;82;20878;-78
2021/10/26 08:03:54;;;;;;;21.90;11.08;;;;;;;6.49;50.48;102699.25;1744374;81;21762;-76
2021/10/26 08:06:19;;;;;;;14.73;9.28;;;;;;;6.57;50.22;102697.85;1733660;82;20936;-77
2021/10/26 08:08:47;;;;;;;13.08;10.20;;;;;;;6.65;50.02;102694.74;1744756;81;20897;-78
2021/10/26 08:11:14;;;;;;;16.30;9.08;;;;;;;6.72;49.67;102695.55;1744589;82;20992;-79
2021/10/26 08:13:41;;;;;;;15.93;8.25;;;;;;;6.79;49.53;102696.75;1687097;84;20889;-79
2021/10/26 08:16:09;;;;;;;16.00;8.68;;;;;;;6.90;49.63;102696.64;1708640;84;21148;-78
2021/10/26 08:18:37;;;;;;;15.80;7.95;;;;;;;7.29;48.76;102692.26;1708709;84;20975;-79
2021/10/26 08:21:05;;;;;;;13.62;7.62;;;;;;;8.07;47.12;102689.39;1734073;81;21575;-77
2021/10/26 08:23:32;;;;;;;12.30;8.08;;;;;;;9.10;45.43;102691.91;1744499;82;20928;-73
2021/10/26 08:26:01;;;;;;;11.73;7.47;;;;;;;10.22;43.20;102695.90;1708668;83;21436;-74
2021/10/26 08:28:28;;;;;;;11.10;6.95;;;;;;;11.30;40.54;102687.30;1708723;84;21685;-74
2021/10/26 08:35:58;;;;;;;7.70;5.83;;;;;;;13.94;34.00;102686.83;1744301;82;20972;-76
2021/10/26 08:38:25;;;;;;;9.15;5.62;;;;;;;14.68;32.99;102683.29;1744439;81;20956;-78
2021/10/26 08:40:56;;;;;;;8.30;5.87;;;;;;;15.33;31.33;102687.34;1708248;84;21162;-76
2021/10/26 08:43:23;;;;;;;9.13;6.33;;;;;;;16.40;30.03;102684.34;1656814;84;20888;-78
2021/10/26 08:45:51;;;;;;;9.28;6.95;;;;;;;16.40;30.03;102684.34;1708758;84;20884;-76
2021/10/26 08:48:21;;;;;;;10.55;8.15;;;;;;;16.92;28.80;102682.97;1708786;82;20896;-75
2021/10/26 08:50:49;;;;;;;8.38;6.17;;;;;;;17.34;28.17;102678.03;1709290;82;21420;-75
2021/10/26 08:53:17;;;;;;;11.68;6.92;;;;;;;17.80;27.70;102673.63;1710454;83;21088;-75
2021/10/26 08:55:56;;;;;;;11.15;6.95;;;;;;;18.28;26.63;102678.00;1716212;83;20943;-74
2021/10/26 08:58:44;;;;;;;9.60;7.22;;;;;;;18.62;26.42;102673.66;1716318;83;21524;-74
2021/10/26 09:01:11;;;;;;;10.70;7.53;;;;;;;19.10;25.29;102666.75;1716458;83;20944;-74
2021/10/26 09:05:15;;;;;;;13.35;7.33;;;;;;;19.74;24.63;102665.72;1798618;79;23172;-74
2021/10/26 09:08:05;;;;;;;25.02;8.33;;;;;;;19.95;24.46;102660.79;1758101;80;21381;-74
2021/10/26 09:10:33;;;;;;;12.93;8.15;;;;;;;20.29;23.94;102668.66;1758214;81;21137;-73
2021/10/26 09:16:48;;;;;;;10.30;8.70;;;;;;;20.74;23.25;102666.92;1758188;80;20983;-73
2021/10/26 09:19:23;;;;;;;10.13;8.28;;;;;;;20.95;23.43;102659.72;1715937;81;20944;-74
2021/10/26 09:22:01;;;;;;;9.53;7.95;;;;;;;21.20;22.27;102657.45;1696219;83;20871;-72
2021/10/26 09:24:30;;;;;;;11.18;8.20;;;;;;;21.22;22.18;102651.04;1724920;81;21404;-74
2021/10/26 09:27:04;;;;;;;17.98;13.00;;;;;;;21.34;22.43;102651.95;1724798;83;21079;-73
2021/10/26 09:29:48;;;;;;;14.23;8.78;;;;;;;21.50;22.16;102647.72;1711095;84;20913;-73
2021/10/26 09:32:21;;;;;;;11.12;6.92;;;;;;;21.72;21.97;102641.14;1711325;83;21454;-74
2021/10/26 09:34:57;;;;;;;9.95;7.00;;;;;;;21.89;20.99;102630.50;1711390;84;20873;-75
2021/10/26 09:37:24;;;;;;;11.00;8.05;;;;;;;21.94;20.84;102628.80;1722517;83;22156;-74
2021/10/26 09:39:57;;;;;;;10.00;7.58;;;;;;;22.08;20.74;102620.59;1722122;83;20888;-75
2021/10/26 09:42:40;;;;;;;10.03;6.83;;;;;;;22.25;20.32;102617.13;1722388;83;21536;-74
2021/10/26 09:45:07;;;;;;;6.35;5.20;;;;;;;22.27;20.00;102621.38;1718784;83;21611;-74
2021/10/26 09:47:37;;;;;;;7.58;6.05;;;;;;;22.26;19.93;102610.82;1722410;83;20975;-75
2021/10/26 09:50:07;;;;;;;9.85;5.80;;;;;;;22.34;19.90;102614.59;1722291;83;21152;-74
2021/10/26 09:52:39;;;;;;;9.58;5.40;;;;;;;22.41;19.86;102611.42;1722318;83;20948;-74
2021/10/26 09:55:18;;;;;;;9.30;6.03;;;;;;;22.50;19.65;102600.87;1722213;83;20960;-74
2021/10/26 09:58:01;;;;;;;10.40;6.60;;;;;;;22.66;19.75;102601.83;1722422;82;21500;-73
2021/10/26 10:00:30;;;;;;;7.42;6.05;;;;;;;22.70;19.51;102598.41;1722325;83;21414;-73
2021/10/26 10:03:09;;;;;;;9.30;5.87;;;;;;;22.61;19.56;102592.00;1722147;83;21152;-76
2021/10/26 10:06:09;;;;;;;9.25;7.25;;;;;;;22.73;19.35;102582.97;1722050;83;20965;-75
2021/10/26 10:08:37;;;;;;;9.88;7.62;;;;;;;22.82;19.33;102584.55;1722136;83;20951;-73
2021/10/26 10:11:14;;;;;;;8.78;6.95;;;;;;;22.80;19.42;102590.51;1722063;83;20944;-74
2021/10/26 10:13:58;;;;;;;13.22;7.03;;;;;;;22.81;19.66;102581.49;1722374;83;21012;-73
2021/10/26 10:16:24;;;;;;;8.53;7.42;;;;;;;22.82;19.25;102577.86;1720533;83;21176;-74
2021/10/26 10:18:55;;;;;;;9.05;6.70;;;;;;;22.72;18.89;102579.07;1721819;83;20933;-76
2021/10/26 10:21:26;;;;;;;28.45;20.80;;;;;;;22.65;19.20;102572.03;1721720;83;20943;-75
2021/10/26 10:23:54;;;;;;;13.13;7.85;;;;;;;22.74;19.19;102567.77;1721790;83;20964;-75
2021/10/26 10:26:27;;;;;;;10.30;7.78;;;;;;;22.83;19.04;102567.51;1694213;83;20936;-76
2021/10/26 10:28:55;;;;;;;18.27;7.78;;;;;;;22.96;19.11;102562.36;1721751;82;21781;-76
2021/10/26 10:31:25;;;;;;;7.45;6.08;;;;;;;23.17;19.02;102557.61;1721592;83;21000;-75
2021/10/26 10:33:54;;;;;;;11.33;5.72;;;;;;;23.33;18.76;102555.34;1721518;83;20951;-74
2021/10/26 10:36:22;;;;;;;9.73;5.53;;;;;;;23.35;18.40;102551.20;1721453;82;20960;-73
2021/10/26 10:38:53;;;;;;;8.73;5.58;;;;;;;23.31;18.39;102541.73;1721854;83;20881;-74
2021/10/26 10:41:30;;;;;;;7.60;6.12;;;;;;;23.21;18.30;102538.98;1720917;83;21142;-78
2021/10/26 10:44:03;;;;;;;11.03;6.08;;;;;;;23.08;18.21;102543.66;1721778;83;20885;-75
2021/10/26 10:46:45;;;;;;;10.30;5.97;;;;;;;22.73;18.26;102540.17;1720533;83;20916;-77
2021/10/26 10:49:23;;;;;;;11.50;5.25;;;;;;;22.24;18.51;102532.08;1721739;83;21425;-75
2021/10/26 10:51:59;;;;;;;8.63;6.03;;;;;;;21.74;18.70;102528.83;1714125;82;20940;-74
2021/10/26 10:57:35;;;;;;;9.50;5.10;;;;;;;20.45;19.60;102525.02;1721502;82;20956;-73
2021/10/26 11:00:28;;;;;;;10.10;5.03;;;;;;;19.84;20.03;102524.86;1720606;83;21124;-77
2021/10/26 11:02:56;;;;;;;9.43;6.37;;;;;;;19.22;20.80;102520.13;1721739;82;20952;-75
2021/10/26 11:05:38;;;;;;;7.65;5.28;;;;;;;18.79;21.36;102517.16;1717997;83;20944;-74
2021/10/26 11:08:12;;;;;;;8.53;5.05;;;;;;;18.48;21.50;102512.91;1717254;83;21023;-75
2021/10/26 11:10:57;;;;;;;9.50;5.65;;;;;;;17.98;21.91;102507.61;1716809;83;21023;-76
2021/10/26 11:13:35;;;;;;;12.50;6.37;;;;;;;17.44;22.34;102509.48;1721743;83;20995;-79
2021/10/26 11:16:06;;;;;;;10.58;5.37;;;;;;;16.90;22.93;102503.30;1704109;84;21047;-77
2021/10/26 11:18:44;;;;;;;11.63;6.15;;;;;;;16.47;23.39;102499.49;1703665;84;20984;-77
2021/10/26 11:21:25;;;;;;;6.17;5.28;;;;;;;16.05;23.81;102496.89;1722007;83;21152;-77
2021/10/26 11:24:06;;;;;;;6.75;5.12;;;;;;;15.65;24.35;102497.62;1703586;84;20909;-79
2021/10/26 11:26:41;;;;;;;9.28;4.95;;;;;;;15.27;24.83;102492.48;1703607;84;20929;-78
2021/10/26 11:29:13;;;;;;;7.70;5.62;;;;;;;14.99;25.12;102485.92;1703663;84;20969;-76
2021/10/26 11:31:51;;;;;;;8.78;4.85;;;;;;;14.80;25.83;102482.45;1704075;84;20992;-84
2021/10/26 11:34:24;;;;;;;12.65;4.67;;;;;;;14.66;25.75;102481.33;1703682;84;21150;-83
2021/10/26 11:37:07;;;;;;;10.65;4.97;;;;;;;14.62;25.68;102475.80;1704068;84;21643;-81
2021/10/26 11:39:37;;;;;;;5.70;5.12;;;;;;;14.62;25.68;102475.80;1703582;84;20921;-83
2021/10/26 11:42:17;;;;;;;6.58;4.67;;;;;;;14.69;25.88;102471.08;1703928;84;20996;-83
2021/10/26 11:44:45;;;;;;;9.38;4.92;;;;;;;14.75;25.50;102465.98;1680618;84;20968;-83
2021/10/26 11:47:11;;;;;;;15.18;5.50;;;;;;;14.76;25.59;102468.53;1704082;84;21106;-81